Kennewick, Washington
Current Conditions -  °F | °C
As of 7:53 AM on Tuesday 21 Oct 2014 (Local Time) from KPSC Reporting Station
Clear Clear  
Wind Chill: 51°   Ceiling: Unl
Heat Index: 51°   Visibility: 10mi
Dew Point: 47°   Wind: 8mph
Humidity: 86%   Direction: 190°S
Pressure: 29.91"   Gusts: NA
Location:  46.21°N, 119.11°W
Report Text: KPSC 211453Z 19007KT 10SM CLR 11/08 A2991 RMK AO2 SLP127 T01060083 52013
Loading
Personal Weather Stations






























Interactive Weather Map New forecast layout! Learn more

10-Day Weather Forecast

Advertisements
Track Severe Weather on mobile